sensor_id;sensor_type;location;lat;lon;timestamp;P1;durP1;ratioP1;P2;durP2;ratioP2
4452;SDS011;2239;48.152;11.584;2024-03-08T00:01:30;15.50;;;5.55;;
4452;SDS011;2239;48.152;11.584;2024-03-08T00:03:56;18.67;;;5.67;;
4452;SDS011;2239;48.152;11.584;2024-03-08T00:06:21;13.10;;;5.20;;
4452;SDS011;2239;48.152;11.584;2024-03-08T00:08:47;17.60;;;5.70;;
4452;SDS011;2239;48.152;11.584;2024-03-08T00:11:13;16.87;;;5.67;;
4452;SDS011;2239;48.152;11.584;2024-03-08T00:13:38;14.23;;;5.50;;
4452;SDS011;2239;48.152;11.584;2024-03-08T00:16:04;17.47;;;5.80;;
4452;SDS011;2239;48.152;11.584;2024-03-08T00:18:30;14.90;;;5.60;;
4452;SDS011;2239;48.152;11.584;2024-03-08T00:20:56;16.20;;;6.50;;
4452;SDS011;2239;48.152;11.584;2024-03-08T00:23:21;21.00;;;5.90;;
4452;SDS011;2239;48.152;11.584;2024-03-08T00:25:48;18.23;;;5.85;;
4452;SDS011;2239;48.152;11.584;2024-03-08T00:28:14;18.43;;;5.90;;
4452;SDS011;2239;48.152;11.584;2024-03-08T00:30:42;15.00;;;5.50;;
4452;SDS011;2239;48.152;11.584;2024-03-08T00:33:07;16.33;;;5.97;;
4452;SDS011;2239;48.152;11.584;2024-03-08T00:35:33;16.63;;;6.30;;
4452;SDS011;2239;48.152;11.584;2024-03-08T00:37:59;16.53;;;6.43;;
4452;SDS011;2239;48.152;11.584;2024-03-08T00:40:24;15.23;;;4.87;;
4452;SDS011;2239;48.152;11.584;2024-03-08T00:42:50;17.10;;;5.87;;
4452;SDS011;2239;48.152;11.584;2024-03-08T00:45:18;18.95;;;5.75;;
4452;SDS011;2239;48.152;11.584;2024-03-08T00:47:43;19.30;;;6.50;;
4452;SDS011;2239;48.152;11.584;2024-03-08T00:50:09;16.30;;;4.60;;
4452;SDS011;2239;48.152;11.584;2024-03-08T00:52:36;18.20;;;6.40;;
4452;SDS011;2239;48.152;11.584;2024-03-08T00:55:02;14.27;;;6.05;;
4452;SDS011;2239;48.152;11.584;2024-03-08T00:57:28;15.45;;;6.00;;
4452;SDS011;2239;48.152;11.584;2024-03-08T00:59:53;15.87;;;5.37;;
4452;SDS011;2239;48.152;11.584;2024-03-08T01:02:19;13.63;;;5.00;;
4452;SDS011;2239;48.152;11.584;2024-03-08T01:04:46;16.52;;;5.60;;
4452;SDS011;2239;48.152;11.584;2024-03-08T01:07:12;18.65;;;6.47;;
4452;SDS011;2239;48.152;11.584;2024-03-08T01:09:38;11.90;;;4.90;;
4452;SDS011;2239;48.152;11.584;2024-03-08T01:12:03;14.20;;;4.90;;
4452;SDS011;2239;48.152;11.584;2024-03-08T01:14:32;18.02;;;6.22;;
4452;SDS011;2239;48.152;11.584;2024-03-08T01:16:58;16.25;;;6.32;;
4452;SDS011;2239;48.152;11.584;2024-03-08T01:19:24;16.87;;;6.10;;
4452;SDS011;2239;48.152;11.584;2024-03-08T01:21:50;16.00;;;6.00;;
4452;SDS011;2239;48.152;11.584;2024-03-08T01:24:16;18.63;;;5.75;;
4452;SDS011;2239;48.152;11.584;2024-03-08T01:26:42;19.13;;;7.90;;
4452;SDS011;2239;48.152;11.584;2024-03-08T01:29:07;16.03;;;6.17;;
4452;SDS011;2239;48.152;11.584;2024-03-08T01:31:33;18.30;;;6.57;;
4452;SDS011;2239;48.152;11.584;2024-03-08T01:33:59;19.10;;;6.40;;
4452;SDS011;2239;48.152;11.584;2024-03-08T01:36:25;18.13;;;6.23;;
4452;SDS011;2239;48.152;11.584;2024-03-08T01:38:51;18.50;;;6.67;;
4452;SDS011;2239;48.152;11.584;2024-03-08T01:41:17;16.73;;;6.68;;
4452;SDS011;2239;48.152;11.584;2024-03-08T01:43:43;14.67;;;5.57;;
4452;SDS011;2239;48.152;11.584;2024-03-08T01:46:10;17.42;;;6.35;;
4452;SDS011;2239;48.152;11.584;2024-03-08T01:48:40;16.90;;;6.60;;
4452;SDS011;2239;48.152;11.584;2024-03-08T01:51:06;18.83;;;4.55;;
4452;SDS011;2239;48.152;11.584;2024-03-08T01:53:33;20.73;;;6.65;;
4452;SDS011;2239;48.152;11.584;2024-03-08T01:55:59;16.95;;;6.00;;
4452;SDS011;2239;48.152;11.584;2024-03-08T01:58:27;21.48;;;5.18;;
4452;SDS011;2239;48.152;11.584;2024-03-08T02:00:54;22.75;;;6.25;;
4452;SDS011;2239;48.152;11.584;2024-03-08T02:03:23;17.48;;;6.30;;
4452;SDS011;2239;48.152;11.584;2024-03-08T02:05:48;18.07;;;6.30;;
4452;SDS011;2239;48.152;11.584;2024-03-08T02:08:14;19.60;;;5.85;;
4452;SDS011;2239;48.152;11.584;2024-03-08T02:10:41;18.15;;;7.65;;
4452;SDS011;2239;48.152;11.584;2024-03-08T02:13:08;20.73;;;7.68;;
4452;SDS011;2239;48.152;11.584;2024-03-08T02:18:20;19.13;;;7.25;;
4452;SDS011;2239;48.152;11.584;2024-03-08T02:20:49;20.25;;;6.85;;
4452;SDS011;2239;48.152;11.584;2024-03-08T02:23:17;23.40;;;6.72;;
4452;SDS011;2239;48.152;11.584;2024-03-08T02:25:47;25.15;;;6.70;;
4452;SDS011;2239;48.152;11.584;2024-03-08T02:28:13;21.35;;;7.13;;
4452;SDS011;2239;48.152;11.584;2024-03-08T02:30:39;19.35;;;6.30;;
4452;SDS011;2239;48.152;11.584;2024-03-08T02:33:05;21.63;;;6.97;;
4452;SDS011;2239;48.152;11.584;2024-03-08T02:35:34;21.75;;;7.80;;
4452;SDS011;2239;48.152;11.584;2024-03-08T02:38:01;17.45;;;7.22;;
4452;SDS011;2239;48.152;11.584;2024-03-08T02:40:28;19.25;;;6.85;;
4452;SDS011;2239;48.152;11.584;2024-03-08T02:42:55;19.20;;;6.68;;
4452;SDS011;2239;48.152;11.584;2024-03-08T02:45:20;23.33;;;6.60;;
4452;SDS011;2239;48.152;11.584;2024-03-08T02:47:46;25.93;;;6.73;;
4452;SDS011;2239;48.152;11.584;2024-03-08T02:50:15;22.83;;;6.70;;
4452;SDS011;2239;48.152;11.584;2024-03-08T02:52:41;22.27;;;6.45;;
4452;SDS011;2239;48.152;11.584;2024-03-08T02:55:07;19.75;;;6.55;;
4452;SDS011;2239;48.152;11.584;2024-03-08T02:57:35;18.45;;;7.07;;
4452;SDS011;2239;48.152;11.584;2024-03-08T03:00:02;20.85;;;7.63;;
4452;SDS011;2239;48.152;11.584;2024-03-08T03:02:29;18.23;;;6.43;;
4452;SDS011;2239;48.152;11.584;2024-03-08T03:04:54;25.90;;;7.73;;
4452;SDS011;2239;48.152;11.584;2024-03-08T03:07:21;27.02;;;8.00;;
4452;SDS011;2239;48.152;11.584;2024-03-08T03:09:46;21.53;;;7.90;;
4452;SDS011;2239;48.152;11.584;2024-03-08T03:12:12;21.37;;;7.80;;
4452;SDS011;2239;48.152;11.584;2024-03-08T03:14:39;28.85;;;8.00;;
4452;SDS011;2239;48.152;11.584;2024-03-08T03:17:04;18.90;;;7.27;;
4452;SDS011;2239;48.152;11.584;2024-03-08T03:19:30;20.20;;;8.80;;
4452;SDS011;2239;48.152;11.584;2024-03-08T03:21:56;25.20;;;7.33;;
4452;SDS011;2239;48.152;11.584;2024-03-08T03:24:22;17.75;;;6.40;;
4452;SDS011;2239;48.152;11.584;2024-03-08T03:26:48;21.85;;;8.13;;
4452;SDS011;2239;48.152;11.584;2024-03-08T03:29:14;23.83;;;8.20;;
4452;SDS011;2239;48.152;11.584;2024-03-08T03:31:41;25.17;;;7.50;;
4452;SDS011;2239;48.152;11.584;2024-03-08T03:34:11;16.15;;;6.50;;
4452;SDS011;2239;48.152;11.584;2024-03-08T03:36:37;20.23;;;6.90;;
4452;SDS011;2239;48.152;11.584;2024-03-08T03:39:07;22.17;;;7.35;;
4452;SDS011;2239;48.152;11.584;2024-03-08T03:41:38;35.38;;;7.82;;
4452;SDS011;2239;48.152;11.584;2024-03-08T03:44:04;17.02;;;6.78;;
4452;SDS011;2239;48.152;11.584;2024-03-08T03:46:32;23.80;;;6.75;;
4452;SDS011;2239;48.152;11.584;2024-03-08T03:48:58;21.35;;;6.90;;
4452;SDS011;2239;48.152;11.584;2024-03-08T03:51:24;22.00;;;7.47;;
4452;SDS011;2239;48.152;11.584;2024-03-08T03:53:50;21.55;;;7.10;;
4452;SDS011;2239;48.152;11.584;2024-03-08T03:56:16;20.03;;;5.10;;
4452;SDS011;2239;48.152;11.584;2024-03-08T03:58:42;22.07;;;7.23;;
4452;SDS011;2239;48.152;11.584;2024-03-08T04:01:07;24.57;;;7.33;;
4452;SDS011;2239;48.152;11.584;2024-03-08T04:03:34;26.88;;;8.43;;
4452;SDS011;2239;48.152;11.584;2024-03-08T04:06:01;25.60;;;7.80;;
4452;SDS011;2239;48.152;11.584;2024-03-08T04:08:27;19.83;;;6.90;;
4452;SDS011;2239;48.152;11.584;2024-03-08T04:10:52;20.23;;;5.60;;
4452;SDS011;2239;48.152;11.584;2024-03-08T04:13:18;12.97;;;5.60;;
4452;SDS011;2239;48.152;11.584;2024-03-08T04:15:45;22.13;;;7.30;;
4452;SDS011;2239;48.152;11.584;2024-03-08T04:18:13;23.02;;;7.20;;
4452;SDS011;2239;48.152;11.584;2024-03-08T04:20:39;22.30;;;7.47;;
4452;SDS011;2239;48.152;11.584;2024-03-08T04:23:05;22.73;;;7.38;;
4452;SDS011;2239;48.152;11.584;2024-03-08T04:25:31;25.63;;;8.48;;
4452;SDS011;2239;48.152;11.584;2024-03-08T04:27:57;26.53;;;8.67;;
4452;SDS011;2239;48.152;11.584;2024-03-08T04:30:23;25.63;;;8.13;;
4452;SDS011;2239;48.152;11.584;2024-03-08T04:32:49;26.48;;;8.05;;
4452;SDS011;2239;48.152;11.584;2024-03-08T04:35:15;23.58;;;7.40;;
4452;SDS011;2239;48.152;11.584;2024-03-08T04:37:41;23.42;;;7.80;;
4452;SDS011;2239;48.152;11.584;2024-03-08T04:40:07;24.80;;;8.00;;
4452;SDS011;2239;48.152;11.584;2024-03-08T04:42:33;28.17;;;7.27;;
4452;SDS011;2239;48.152;11.584;2024-03-08T04:45:00;31.17;;;7.82;;
4452;SDS011;2239;48.152;11.584;2024-03-08T04:47:26;24.15;;;8.23;;
4452;SDS011;2239;48.152;11.584;2024-03-08T04:49:52;30.37;;;9.70;;
4452;SDS011;2239;48.152;11.584;2024-03-08T04:52:18;30.73;;;8.75;;
4452;SDS011;2239;48.152;11.584;2024-03-08T04:54:43;24.97;;;8.97;;
4452;SDS011;2239;48.152;11.584;2024-03-08T04:57:12;22.63;;;6.93;;
4452;SDS011;2239;48.152;11.584;2024-03-08T04:59:38;25.50;;;9.40;;
4452;SDS011;2239;48.152;11.584;2024-03-08T05:02:03;31.13;;;10.27;;
4452;SDS011;2239;48.152;11.584;2024-03-08T05:04:29;31.90;;;9.60;;
4452;SDS011;2239;48.152;11.584;2024-03-08T05:06:55;33.90;;;10.63;;
4452;SDS011;2239;48.152;11.584;2024-03-08T05:09:21;27.17;;;8.10;;
4452;SDS011;2239;48.152;11.584;2024-03-08T05:11:47;18.42;;;6.10;;
4452;SDS011;2239;48.152;11.584;2024-03-08T05:14:13;28.90;;;10.83;;
4452;SDS011;2239;48.152;11.584;2024-03-08T05:16:45;30.45;;;9.48;;
4452;SDS011;2239;48.152;11.584;2024-03-08T05:19:14;29.98;;;9.10;;
4452;SDS011;2239;48.152;11.584;2024-03-08T05:21:42;26.63;;;8.73;;
4452;SDS011;2239;48.152;11.584;2024-03-08T05:24:15;27.50;;;8.93;;
4452;SDS011;2239;48.152;11.584;2024-03-08T05:26:41;26.88;;;8.95;;
4452;SDS011;2239;48.152;11.584;2024-03-08T05:29:07;33.85;;;9.70;;
4452;SDS011;2239;48.152;11.584;2024-03-08T05:31:57;24.38;;;9.10;;
4452;SDS011;2239;48.152;11.584;2024-03-08T05:34:23;32.67;;;8.93;;
4452;SDS011;2239;48.152;11.584;2024-03-08T05:36:49;29.10;;;9.98;;
4452;SDS011;2239;48.152;11.584;2024-03-08T05:39:16;30.77;;;9.57;;
4452;SDS011;2239;48.152;11.584;2024-03-08T05:41:42;30.13;;;9.55;;
4452;SDS011;2239;48.152;11.584;2024-03-08T05:44:09;24.80;;;8.18;;
4452;SDS011;2239;48.152;11.584;2024-03-08T05:46:35;26.52;;;7.70;;
4452;SDS011;2239;48.152;11.584;2024-03-08T05:49:02;32.30;;;10.10;;
4452;SDS011;2239;48.152;11.584;2024-03-08T05:51:31;26.73;;;8.75;;
4452;SDS011;2239;48.152;11.584;2024-03-08T05:54:01;33.30;;;10.52;;
4452;SDS011;2239;48.152;11.584;2024-03-08T05:56:29;30.88;;;8.90;;
4452;SDS011;2239;48.152;11.584;2024-03-08T05:58:54;29.67;;;9.45;;
4452;SDS011;2239;48.152;11.584;2024-03-08T06:01:21;32.13;;;10.35;;
4452;SDS011;2239;48.152;11.584;2024-03-08T06:03:47;31.13;;;9.03;;
4452;SDS011;2239;48.152;11.584;2024-03-08T06:06:14;36.90;;;10.55;;
4452;SDS011;2239;48.152;11.584;2024-03-08T06:08:43;26.95;;;8.90;;
4452;SDS011;2239;48.152;11.584;2024-03-08T06:11:09;31.63;;;10.20;;
4452;SDS011;2239;48.152;11.584;2024-03-08T06:13:35;20.45;;;8.00;;
4452;SDS011;2239;48.152;11.584;2024-03-08T06:16:01;30.67;;;8.37;;
4452;SDS011;2239;48.152;11.584;2024-03-08T06:18:33;31.33;;;9.60;;
4452;SDS011;2239;48.152;11.584;2024-03-08T06:20:59;25.05;;;9.40;;
4452;SDS011;2239;48.152;11.584;2024-03-08T06:23:25;29.42;;;8.90;;
4452;SDS011;2239;48.152;11.584;2024-03-08T06:25:52;28.65;;;10.10;;
4452;SDS011;2239;48.152;11.584;2024-03-08T06:28:18;27.80;;;10.68;;
4452;SDS011;2239;48.152;11.584;2024-03-08T06:30:44;34.53;;;9.20;;
4452;SDS011;2239;48.152;11.584;2024-03-08T06:33:09;26.70;;;9.30;;
4452;SDS011;2239;48.152;11.584;2024-03-08T06:35:35;25.60;;;8.60;;
4452;SDS011;2239;48.152;11.584;2024-03-08T06:38:03;16.35;;;6.18;;
4452;SDS011;2239;48.152;11.584;2024-03-08T06:40:29;28.25;;;9.35;;
4452;SDS011;2239;48.152;11.584;2024-03-08T06:42:55;28.77;;;10.00;;
4452;SDS011;2239;48.152;11.584;2024-03-08T06:45:21;31.57;;;9.50;;
4452;SDS011;2239;48.152;11.584;2024-03-08T06:47:48;23.60;;;8.60;;
4452;SDS011;2239;48.152;11.584;2024-03-08T06:50:14;34.20;;;9.45;;
4452;SDS011;2239;48.152;11.584;2024-03-08T06:52:40;28.63;;;8.97;;
4452;SDS011;2239;48.152;11.584;2024-03-08T06:55:11;21.10;;;7.80;;
4452;SDS011;2239;48.152;11.584;2024-03-08T06:57:40;29.30;;;10.67;;
4452;SDS011;2239;48.152;11.584;2024-03-08T07:00:07;30.83;;;10.93;;
4452;SDS011;2239;48.152;11.584;2024-03-08T07:02:40;23.88;;;7.40;;
4452;SDS011;2239;48.152;11.584;2024-03-08T07:05:07;27.25;;;8.30;;
4452;SDS011;2239;48.152;11.584;2024-03-08T07:07:35;24.27;;;7.20;;
4452;SDS011;2239;48.152;11.584;2024-03-08T07:10:01;32.08;;;9.10;;
4452;SDS011;2239;48.152;11.584;2024-03-08T07:12:27;26.90;;;8.40;;
4452;SDS011;2239;48.152;11.584;2024-03-08T07:14:52;24.70;;;8.63;;
4452;SDS011;2239;48.152;11.584;2024-03-08T07:17:18;17.80;;;7.47;;
4452;SDS011;2239;48.152;11.584;2024-03-08T07:19:44;27.47;;;7.40;;
4452;SDS011;2239;48.152;11.584;2024-03-08T07:22:10;23.03;;;7.07;;
4452;SDS011;2239;48.152;11.584;2024-03-08T07:24:36;26.05;;;8.75;;
4452;SDS011;2239;48.152;11.584;2024-03-08T07:27:02;22.00;;;8.03;;
4452;SDS011;2239;48.152;11.584;2024-03-08T07:29:30;22.35;;;8.52;;
4452;SDS011;2239;48.152;11.584;2024-03-08T07:32:00;20.83;;;7.70;;
4452;SDS011;2239;48.152;11.584;2024-03-08T07:34:25;27.93;;;10.17;;
4452;SDS011;2239;48.152;11.584;2024-03-08T07:36:51;24.17;;;7.43;;
4452;SDS011;2239;48.152;11.584;2024-03-08T07:39:17;21.93;;;7.77;;
4452;SDS011;2239;48.152;11.584;2024-03-08T07:41:44;23.05;;;7.80;;
4452;SDS011;2239;48.152;11.584;2024-03-08T07:44:09;22.13;;;9.07;;
4452;SDS011;2239;48.152;11.584;2024-03-08T07:46:35;22.60;;;8.10;;
4452;SDS011;2239;48.152;11.584;2024-03-08T07:49:02;23.55;;;7.93;;
4452;SDS011;2239;48.152;11.584;2024-03-08T07:51:28;24.75;;;7.60;;
4452;SDS011;2239;48.152;11.584;2024-03-08T07:53:54;19.93;;;7.70;;
4452;SDS011;2239;48.152;11.584;2024-03-08T07:56:20;29.45;;;9.95;;
4452;SDS011;2239;48.152;11.584;2024-03-08T07:58:46;32.92;;;9.20;;
4452;SDS011;2239;48.152;11.584;2024-03-08T08:01:19;23.63;;;7.88;;
4452;SDS011;2239;48.152;11.584;2024-03-08T08:03:45;25.00;;;8.25;;
4452;SDS011;2239;48.152;11.584;2024-03-08T08:06:14;18.75;;;6.72;;
4452;SDS011;2239;48.152;11.584;2024-03-08T08:08:43;28.08;;;8.68;;
4452;SDS011;2239;48.152;11.584;2024-03-08T08:11:09;22.02;;;8.00;;
4452;SDS011;2239;48.152;11.584;2024-03-08T08:13:40;27.30;;;6.95;;
4452;SDS011;2239;48.152;11.584;2024-03-08T08:16:08;26.67;;;9.15;;
4452;SDS011;2239;48.152;11.584;2024-03-08T08:18:34;24.38;;;8.55;;
4452;SDS011;2239;48.152;11.584;2024-03-08T08:21:00;26.80;;;8.30;;
4452;SDS011;2239;48.152;11.584;2024-03-08T08:23:26;24.58;;;8.20;;
4452;SDS011;2239;48.152;11.584;2024-03-08T08:25:52;28.17;;;8.80;;
4452;SDS011;2239;48.152;11.584;2024-03-08T08:28:18;21.80;;;8.47;;
4452;SDS011;2239;48.152;11.584;2024-03-08T08:30:44;23.73;;;7.87;;
4452;SDS011;2239;48.152;11.584;2024-03-08T08:33:10;19.63;;;8.15;;
4452;SDS011;2239;48.152;11.584;2024-03-08T08:35:38;24.23;;;8.50;;
4452;SDS011;2239;48.152;11.584;2024-03-08T08:38:04;27.67;;;8.00;;
4452;SDS011;2239;48.152;11.584;2024-03-08T08:40:30;16.63;;;5.07;;
4452;SDS011;2239;48.152;11.584;2024-03-08T08:42:57;25.70;;;8.10;;
4452;SDS011;2239;48.152;11.584;2024-03-08T08:45:23;32.45;;;8.85;;
4452;SDS011;2239;48.152;11.584;2024-03-08T08:47:49;20.10;;;7.30;;
4452;SDS011;2239;48.152;11.584;2024-03-08T08:50:15;28.63;;;8.83;;
4452;SDS011;2239;48.152;11.584;2024-03-08T08:52:41;24.65;;;8.50;;
4452;SDS011;2239;48.152;11.584;2024-03-08T08:55:08;21.65;;;7.35;;
4452;SDS011;2239;48.152;11.584;2024-03-08T08:57:39;27.30;;;9.38;;
4452;SDS011;2239;48.152;11.584;2024-03-08T09:00:05;30.50;;;9.13;;
4452;SDS011;2239;48.152;11.584;2024-03-08T09:02:33;34.25;;;9.15;;
4452;SDS011;2239;48.152;11.584;2024-03-08T09:04:59;22.60;;;7.47;;
4452;SDS011;2239;48.152;11.584;2024-03-08T09:07:26;22.85;;;8.48;;
4452;SDS011;2239;48.152;11.584;2024-03-08T09:09:53;26.48;;;8.70;;
4452;SDS011;2239;48.152;11.584;2024-03-08T09:12:22;24.75;;;8.60;;
4452;SDS011;2239;48.152;11.584;2024-03-08T09:14:48;26.00;;;9.13;;
4452;SDS011;2239;48.152;11.584;2024-03-08T09:17:14;22.77;;;8.30;;
4452;SDS011;2239;48.152;11.584;2024-03-08T09:19:45;26.27;;;8.85;;
4452;SDS011;2239;48.152;11.584;2024-03-08T09:22:14;26.67;;;8.87;;
4452;SDS011;2239;48.152;11.584;2024-03-08T09:24:40;25.10;;;10.00;;
4452;SDS011;2239;48.152;11.584;2024-03-08T09:27:05;27.90;;;9.20;;
4452;SDS011;2239;48.152;11.584;2024-03-08T09:29:31;22.70;;;7.67;;
4452;SDS011;2239;48.152;11.584;2024-03-08T09:31:57;26.20;;;8.37;;
4452;SDS011;2239;48.152;11.584;2024-03-08T09:34:22;26.57;;;8.17;;
4452;SDS011;2239;48.152;11.584;2024-03-08T09:36:48;25.50;;;8.30;;
4452;SDS011;2239;48.152;11.584;2024-03-08T09:39:15;24.45;;;8.00;;
4452;SDS011;2239;48.152;11.584;2024-03-08T09:41:46;24.05;;;9.20;;
4452;SDS011;2239;48.152;11.584;2024-03-08T09:44:17;24.50;;;8.63;;
4452;SDS011;2239;48.152;11.584;2024-03-08T09:46:44;24.10;;;8.25;;
4452;SDS011;2239;48.152;11.584;2024-03-08T09:49:16;24.70;;;8.68;;
4452;SDS011;2239;48.152;11.584;2024-03-08T09:51:42;23.92;;;9.18;;
4452;SDS011;2239;48.152;11.584;2024-03-08T09:54:08;20.73;;;7.77;;
4452;SDS011;2239;48.152;11.584;2024-03-08T09:56:37;29.50;;;9.03;;
4452;SDS011;2239;48.152;11.584;2024-03-08T09:59:05;28.20;;;8.33;;
4452;SDS011;2239;48.152;11.584;2024-03-08T10:01:31;25.77;;;9.17;;
4452;SDS011;2239;48.152;11.584;2024-03-08T10:03:57;30.70;;;9.67;;
4452;SDS011;2239;48.152;11.584;2024-03-08T10:06:23;30.30;;;9.30;;
4452;SDS011;2239;48.152;11.584;2024-03-08T10:08:49;22.57;;;8.30;;
4452;SDS011;2239;48.152;11.584;2024-03-08T10:11:18;27.83;;;9.20;;
4452;SDS011;2239;48.152;11.584;2024-03-08T10:13:44;24.30;;;7.87;;
4452;SDS011;2239;48.152;11.584;2024-03-08T10:16:12;22.27;;;8.03;;
4452;SDS011;2239;48.152;11.584;2024-03-08T10:18:38;23.60;;;8.40;;
4452;SDS011;2239;48.152;11.584;2024-03-08T10:21:07;17.93;;;6.60;;
4452;SDS011;2239;48.152;11.584;2024-03-08T10:23:35;22.97;;;7.27;;
4452;SDS011;2239;48.152;11.584;2024-03-08T10:26:14;19.77;;;7.17;;
4452;SDS011;2239;48.152;11.584;2024-03-08T10:28:46;19.57;;;7.00;;
4452;SDS011;2239;48.152;11.584;2024-03-08T10:31:17;19.33;;;7.40;;
4452;SDS011;2239;48.152;11.584;2024-03-08T10:33:44;20.77;;;7.43;;
4452;SDS011;2239;48.152;11.584;2024-03-08T10:36:11;19.07;;;7.30;;
4452;SDS011;2239;48.152;11.584;2024-03-08T10:38:39;19.70;;;6.90;;
4452;SDS011;2239;48.152;11.584;2024-03-08T10:41:07;16.73;;;6.90;;
4452;SDS011;2239;48.152;11.584;2024-03-08T10:49:17;19.10;;;7.60;;
4452;SDS011;2239;48.152;11.584;2024-03-08T10:51:50;22.97;;;8.00;;
4452;SDS011;2239;48.152;11.584;2024-03-08T10:54:17;20.27;;;6.73;;
4452;SDS011;2239;48.152;11.584;2024-03-08T10:56:46;20.60;;;8.47;;
4452;SDS011;2239;48.152;11.584;2024-03-08T10:59:14;17.37;;;6.57;;
4452;SDS011;2239;48.152;11.584;2024-03-08T11:01:40;15.73;;;6.77;;
4452;SDS011;2239;48.152;11.584;2024-03-08T11:04:06;15.63;;;6.80;;
4452;SDS011;2239;48.152;11.584;2024-03-08T11:09:48;19.00;;;7.37;;
4452;SDS011;2239;48.152;11.584;2024-03-08T11:14:54;18.83;;;7.30;;
4452;SDS011;2239;48.152;11.584;2024-03-08T11:19:47;21.00;;;7.67;;
4452;SDS011;2239;48.152;11.584;2024-03-08T11:22:20;22.50;;;7.93;;
4452;SDS011;2239;48.152;11.584;2024-03-08T11:24:58;15.60;;;6.60;;
4452;SDS011;2239;48.152;11.584;2024-03-08T11:27:30;19.10;;;6.77;;
4452;SDS011;2239;48.152;11.584;2024-03-08T11:30:03;18.17;;;7.13;;
4452;SDS011;2239;48.152;11.584;2024-03-08T11:32:37;21.07;;;7.13;;
4452;SDS011;2239;48.152;11.584;2024-03-08T11:35:07;24.20;;;8.30;;
4452;SDS011;2239;48.152;11.584;2024-03-08T11:37:43;19.30;;;7.77;;
4452;SDS011;2239;48.152;11.584;2024-03-08T11:40:13;17.47;;;7.50;;
4452;SDS011;2239;48.152;11.584;2024-03-08T11:42:51;22.90;;;8.33;;
4452;SDS011;2239;48.152;11.584;2024-03-08T11:45:17;18.47;;;6.97;;
4452;SDS011;2239;48.152;11.584;2024-03-08T11:47:46;20.23;;;8.20;;
4452;SDS011;2239;48.152;11.584;2024-03-08T11:50:14;21.40;;;7.60;;
4452;SDS011;2239;48.152;11.584;2024-03-08T11:52:41;21.27;;;8.07;;
4452;SDS011;2239;48.152;11.584;2024-03-08T11:55:08;18.83;;;7.20;;
4452;SDS011;2239;48.152;11.584;2024-03-08T11:57:34;24.40;;;7.80;;
4452;SDS011;2239;48.152;11.584;2024-03-08T12:00:00;22.57;;;8.50;;
4452;SDS011;2239;48.152;11.584;2024-03-08T12:02:32;15.37;;;6.60;;
4452;SDS011;2239;48.152;11.584;2024-03-08T12:05:03;20.70;;;7.40;;
4452;SDS011;2239;48.152;11.584;2024-03-08T12:07:31;23.47;;;7.30;;
4452;SDS011;2239;48.152;11.584;2024-03-08T12:12:51;18.57;;;7.37;;
4452;SDS011;2239;48.152;11.584;2024-03-08T12:15:18;23.07;;;8.50;;
4452;SDS011;2239;48.152;11.584;2024-03-08T12:17:47;20.20;;;7.57;;
4452;SDS011;2239;48.152;11.584;2024-03-08T12:20:18;22.30;;;8.30;;
4452;SDS011;2239;48.152;11.584;2024-03-08T12:22:47;19.00;;;7.53;;
4452;SDS011;2239;48.152;11.584;2024-03-08T12:25:14;19.33;;;7.93;;
4452;SDS011;2239;48.152;11.584;2024-03-08T12:27:40;16.83;;;6.47;;
4452;SDS011;2239;48.152;11.584;2024-03-08T12:32:48;20.00;;;7.70;;
4452;SDS011;2239;48.152;11.584;2024-03-08T12:35:22;21.10;;;8.10;;
4452;SDS011;2239;48.152;11.584;2024-03-08T12:37:50;18.50;;;6.73;;
4452;SDS011;2239;48.152;11.584;2024-03-08T12:40:16;22.90;;;9.17;;
4452;SDS011;2239;48.152;11.584;2024-03-08T12:42:51;18.93;;;8.10;;
4452;SDS011;2239;48.152;11.584;2024-03-08T12:45:17;24.20;;;7.03;;
4452;SDS011;2239;48.152;11.584;2024-03-08T12:47:43;19.37;;;8.30;;
4452;SDS011;2239;48.152;11.584;2024-03-08T12:50:09;17.40;;;7.10;;
4452;SDS011;2239;48.152;11.584;2024-03-08T12:52:35;21.63;;;7.93;;
4452;SDS011;2239;48.152;11.584;2024-03-08T12:55:02;19.90;;;7.77;;
4452;SDS011;2239;48.152;11.584;2024-03-08T12:57:28;24.33;;;7.87;;
4452;SDS011;2239;48.152;11.584;2024-03-08T12:59:54;22.13;;;8.30;;
4452;SDS011;2239;48.152;11.584;2024-03-08T13:02:19;18.27;;;6.63;;
4452;SDS011;2239;48.152;11.584;2024-03-08T13:04:46;19.63;;;7.20;;
4452;SDS011;2239;48.152;11.584;2024-03-08T13:07:20;16.93;;;7.10;;
4452;SDS011;2239;48.152;11.584;2024-03-08T13:09:46;22.60;;;8.57;;
4452;SDS011;2239;48.152;11.584;2024-03-08T13:12:12;18.33;;;7.23;;
4452;SDS011;2239;48.152;11.584;2024-03-08T13:14:40;20.10;;;7.97;;
4452;SDS011;2239;48.152;11.584;2024-03-08T13:17:06;16.73;;;6.70;;
4452;SDS011;2239;48.152;11.584;2024-03-08T13:19:36;14.80;;;6.00;;
4452;SDS011;2239;48.152;11.584;2024-03-08T13:22:03;20.67;;;7.17;;
4452;SDS011;2239;48.152;11.584;2024-03-08T13:24:32;18.70;;;7.33;;
4452;SDS011;2239;48.152;11.584;2024-03-08T13:27:01;22.60;;;6.33;;
4452;SDS011;2239;48.152;11.584;2024-03-08T13:29:27;21.17;;;8.40;;
4452;SDS011;2239;48.152;11.584;2024-03-08T13:31:52;15.70;;;6.40;;
4452;SDS011;2239;48.152;11.584;2024-03-08T13:34:22;20.83;;;6.70;;
4452;SDS011;2239;48.152;11.584;2024-03-08T13:36:53;17.43;;;6.60;;
4452;SDS011;2239;48.152;11.584;2024-03-08T13:39:24;21.00;;;7.30;;
4452;SDS011;2239;48.152;11.584;2024-03-08T13:41:51;21.20;;;7.37;;
4452;SDS011;2239;48.152;11.584;2024-03-08T13:44:16;19.97;;;7.40;;
4452;SDS011;2239;48.152;11.584;2024-03-08T13:46:42;17.53;;;7.20;;
4452;SDS011;2239;48.152;11.584;2024-03-08T13:49:08;20.37;;;7.23;;
4452;SDS011;2239;48.152;11.584;2024-03-08T13:51:36;20.93;;;7.97;;
4452;SDS011;2239;48.152;11.584;2024-03-08T13:54:01;17.63;;;7.93;;
4452;SDS011;2239;48.152;11.584;2024-03-08T13:56:27;21.03;;;7.63;;
4452;SDS011;2239;48.152;11.584;2024-03-08T13:58:56;17.50;;;6.73;;
4452;SDS011;2239;48.152;11.584;2024-03-08T14:01:22;18.10;;;6.47;;
4452;SDS011;2239;48.152;11.584;2024-03-08T14:03:48;19.00;;;7.13;;
4452;SDS011;2239;48.152;11.584;2024-03-08T14:06:14;20.37;;;7.17;;
4452;SDS011;2239;48.152;11.584;2024-03-08T14:08:40;14.20;;;6.10;;
4452;SDS011;2239;48.152;11.584;2024-03-08T14:11:05;16.60;;;6.73;;
4452;SDS011;2239;48.152;11.584;2024-03-08T14:13:42;12.93;;;6.63;;
4452;SDS011;2239;48.152;11.584;2024-03-08T14:16:11;16.70;;;7.60;;
4452;SDS011;2239;48.152;11.584;2024-03-08T14:18:37;18.30;;;7.33;;
4452;SDS011;2239;48.152;11.584;2024-03-08T14:21:03;20.03;;;7.93;;
4452;SDS011;2239;48.152;11.584;2024-03-08T14:23:33;16.90;;;6.63;;
4452;SDS011;2239;48.152;11.584;2024-03-08T14:25:59;21.13;;;7.17;;
4452;SDS011;2239;48.152;11.584;2024-03-08T14:28:25;15.60;;;6.90;;
4452;SDS011;2239;48.152;11.584;2024-03-08T14:30:53;20.03;;;6.77;;
4452;SDS011;2239;48.152;11.584;2024-03-08T14:33:19;16.63;;;6.17;;
4452;SDS011;2239;48.152;11.584;2024-03-08T14:35:45;16.87;;;7.00;;
4452;SDS011;2239;48.152;11.584;2024-03-08T14:38:14;19.77;;;7.60;;
4452;SDS011;2239;48.152;11.584;2024-03-08T14:40:42;17.93;;;6.57;;
4452;SDS011;2239;48.152;11.584;2024-03-08T14:43:11;16.53;;;6.20;;
4452;SDS011;2239;48.152;11.584;2024-03-08T14:45:38;17.80;;;6.30;;
4452;SDS011;2239;48.152;11.584;2024-03-08T14:48:04;23.90;;;7.47;;
4452;SDS011;2239;48.152;11.584;2024-03-08T14:50:30;18.33;;;6.70;;
4452;SDS011;2239;48.152;11.584;2024-03-08T14:52:58;16.50;;;6.33;;
4452;SDS011;2239;48.152;11.584;2024-03-08T14:55:25;16.43;;;7.13;;
4452;SDS011;2239;48.152;11.584;2024-03-08T14:57:51;20.10;;;7.17;;
4452;SDS011;2239;48.152;11.584;2024-03-08T15:00:20;17.27;;;7.70;;
4452;SDS011;2239;48.152;11.584;2024-03-08T15:02:54;17.77;;;6.30;;
4452;SDS011;2239;48.152;11.584;2024-03-08T15:05:24;17.60;;;6.50;;
4452;SDS011;2239;48.152;11.584;2024-03-08T15:07:53;16.13;;;7.23;;
4452;SDS011;2239;48.152;11.584;2024-03-08T15:10:22;19.87;;;6.70;;